Bayride — WDJ3194 — position and weather

sailwx.info

Track history (hours):
 
Tides and Currents Weather Stations Pressure Air Temp Water Temp Dewpoint Dewpoint Depression Visibility Wind Speed Wind Dir Waves Ship Positions

Bayride

Owner: Offshore Powerboat Rides Miami Inc, Miami, FL. More information available from US FCC via Universal Licensing System and Coast Guard Vessel Documentation Center.

Last reported at 2018-Jan-19 22:13 UTC. Time now 2018-Jan-21 03:12 UTC.
Position N 26°03' W 080°08'.

Length 22 m.

Type: Passenger vessel. MMSI: 367765690.

Date/timePositionNaut miles runAvg speedWind from/ knotsBaromVisibWave heightAir tempDewpointWater temp
2018-Jan-19 22:13N 26°03' W 080°08'0 0.0
2018-Jan-19 21:58N 26°03' W 080°08'0 0.0
2018-Jan-19 21:23N 26°03' W 080°08'0 0.0
2018-Jan-19 20:58N 26°03' W 080°08'  
2018-Jan-11 16:35N 26°04' W 080°08'0 0.4
2018-Jan-11 16:28N 26°04' W 080°08'0 0.0
2018-Jan-11 15:55N 26°04' W 080°08'0 0.0
2018-Jan-11 15:16N 26°04' W 080°08'0 0.0
2018-Jan-11 15:01N 26°04' W 080°08'0 0.0
2018-Jan-11 14:31N 26°04' W 080°08'0 0.0
2018-Jan-11 13:55N 26°04' W 080°08'1 2.0
2018-Jan-11 13:29N 26°03' W 080°07'3 5.1
2018-Jan-11 12:59N 26°01' W 080°07'1 2.8
2018-Jan-11 12:27N 25°59' W 080°07'2 4.9
2018-Jan-11 12:00N 25°57' W 080°08'4 7.4
2018-Jan-11 11:30N 25°53' W 080°09'4 8.1
2018-Jan-11 10:59N 25°49' W 080°10'3 5.6
2018-Jan-11 10:30N 25°47' W 080°11'  
Track history (hours):
 
Tides and Currents Weather Stations Pressure Air Temp Water Temp Dewpoint Dewpoint Depression Visibility Wind Speed Wind Dir Waves Ship Positions

Bayride

Owner: Offshore Powerboat Rides Miami Inc, Miami, FL. More information available from US FCC via Universal Licensing System and Coast Guard Vessel Documentation Center.

Last reported at 2018-Jan-19 22:13 UTC. Time now 2018-Jan-21 03:12 UTC.
Position N 26°03' W 080°08'.

Length 22 m.

Type: Passenger vessel. MMSI: 367765690.

Date/timePositionNaut miles runAvg speedWind from/ knotsBaromVisibWave heightAir tempDewpointWater temp
2018-Jan-19 22:13N 26°03' W 080°08'0 0.0
2018-Jan-19 21:58N 26°03' W 080°08'0 0.0
2018-Jan-19 21:23N 26°03' W 080°08'0 0.0
2018-Jan-19 20:58N 26°03' W 080°08'  
2018-Jan-11 16:35N 26°04' W 080°08'0 0.4
2018-Jan-11 16:28N 26°04' W 080°08'0 0.0
2018-Jan-11 15:55N 26°04' W 080°08'0 0.0
2018-Jan-11 15:16N 26°04' W 080°08'0 0.0
2018-Jan-11 15:01N 26°04' W 080°08'0 0.0
2018-Jan-11 14:31N 26°04' W 080°08'0 0.0
2018-Jan-11 13:55N 26°04' W 080°08'1 2.0
2018-Jan-11 13:29N 26°03' W 080°07'3 5.1
2018-Jan-11 12:59N 26°01' W 080°07'1 2.8
2018-Jan-11 12:27N 25°59' W 080°07'2 4.9
2018-Jan-11 12:00N 25°57' W 080°08'4 7.4
2018-Jan-11 11:30N 25°53' W 080°09'4 8.1
2018-Jan-11 10:59N 25°49' W 080°10'3 5.6
2018-Jan-11 10:30N 25°47' W 080°11'  

Dump ship's entire track history